Time;durP1;ratioP1;P1;durP2;ratioP2;P2;SDS_P1;SDS_P2;PMS_P1;PMS_P2;Temp;Humidity;BMP_temperature;BMP_pressure;BME280_temperature;BME280_humidity;BME280_pressure;Samples;Min_cycle;Max_cycle;Signal;HPM_P1;HPM_P2
2021/03/17 00:00:48;;;;;;;29.03;16.03;;;;;;;;;;5070957;28;20024;-82
2021/03/17 00:03:13;;;;;;;31.97;18.00;;;;;;;;;;5071263;28;20525;-82
2021/03/17 00:05:42;;;;;;;21.73;12.33;;;;;;;;;;5070968;28;20074;-82
2021/03/17 00:08:07;;;;;;;20.67;12.07;;;;;;;;;;5070389;28;20549;-83
2021/03/17 00:10:33;;;;;;;26.08;14.82;;;;;;;;;;5072392;28;20016;-83
2021/03/17 00:12:59;;;;;;;21.65;11.32;;;;;;;;;;5071139;28;20443;-83
2021/03/17 00:15:25;;;;;;;24.63;13.90;;;;;;;;;;5070838;28;20032;-83
2021/03/17 00:17:50;;;;;;;25.30;14.87;;;;;;;;;;5070870;28;20410;-82
2021/03/17 00:20:15;;;;;;;23.55;13.10;;;;;;;;;;5072023;28;20050;-83
2021/03/17 00:22:41;;;;;;;23.02;13.77;;;;;;;;;;5070976;28;20016;-83
2021/03/17 00:25:07;;;;;;;25.20;14.45;;;;;;;;;;5072195;28;20048;-83
2021/03/17 00:27:32;;;;;;;20.27;11.20;;;;;;;;;;5070736;28;20044;-82
2021/03/17 00:29:57;;;;;;;28.33;15.93;;;;;;;;;;5070336;28;20491;-83
2021/03/17 00:32:22;;;;;;;30.40;14.88;;;;;;;;;;5055507;28;20025;-83
2021/03/17 00:34:48;;;;;;;25.25;13.63;;;;;;;;;;5069938;28;20016;-82
2021/03/17 00:37:13;;;;;;;24.63;14.07;;;;;;;;;;5064975;28;20135;-82
2021/03/17 00:39:38;;;;;;;27.02;14.23;;;;;;;;;;5062520;28;20051;-83
2021/03/17 00:42:04;;;;;;;25.83;13.90;;;;;;;;;;5070713;28;20016;-83
2021/03/17 00:44:29;;;;;;;28.00;14.40;;;;;;;;;;5072030;28;20118;-82
2021/03/17 00:46:54;;;;;;;22.20;11.23;;;;;;;;;;5070104;28;20100;-83
2021/03/17 00:49:19;;;;;;;26.25;13.65;;;;;;;;;;5072058;28;20028;-83
2021/03/17 00:51:45;;;;;;;25.58;13.85;;;;;;;;;;5070624;28;20025;-83
2021/03/17 00:54:10;;;;;;;30.13;14.00;;;;;;;;;;5057920;28;20024;-82
2021/03/17 00:56:35;;;;;;;26.20;14.02;;;;;;;;;;5070579;28;20147;-82
2021/03/17 00:59:00;;;;;;;33.27;15.30;;;;;;;;;;5070671;28;20048;-83
2021/03/17 01:01:25;;;;;;;23.02;12.23;;;;;;;;;;5071946;28;20017;-82
2021/03/17 01:03:51;;;;;;;28.05;15.25;;;;;;;;;;5071671;28;20021;-82
2021/03/17 01:06:16;;;;;;;25.77;13.38;;;;;;;;;;5070310;28;20090;-83
2021/03/17 01:08:41;;;;;;;29.20;14.73;;;;;;;;;;5071900;28;20094;-83
2021/03/17 01:11:07;;;;;;;30.80;16.17;;;;;;;;;;5070076;28;20056;-83
2021/03/17 01:13:32;;;;;;;29.00;15.60;;;;;;;;;;5070413;28;20081;-83
2021/03/17 01:15:57;;;;;;;32.40;17.13;;;;;;;;;;5070279;28;20020;-83
2021/03/17 01:18:22;;;;;;;30.90;16.87;;;;;;;;;;5072731;28;20024;-82
2021/03/17 01:20:48;;;;;;;27.07;14.87;;;;;;;;;;5075179;28;20020;-82
2021/03/17 01:23:13;;;;;;;25.53;14.27;;;;;;;;;;5075399;28;20027;-83
2021/03/17 01:25:39;;;;;;;22.77;13.27;;;;;;;;;;5067998;28;20122;-83
2021/03/17 01:28:06;;;;;;;26.00;13.43;;;;;;;;;;5074212;28;20035;-82
2021/03/17 01:30:33;;;;;;;24.23;13.07;;;;;;;;;;5075417;28;20054;-82
2021/03/17 01:32:59;;;;;;;22.93;13.30;;;;;;;;;;5074892;28;20349;-82
2021/03/17 01:35:24;;;;;;;23.90;12.57;;;;;;;;;;5073736;28;20387;-82
2021/03/17 01:37:50;;;;;;;23.43;12.70;;;;;;;;;;5074078;28;20016;-82
2021/03/17 01:40:15;;;;;;;20.57;11.90;;;;;;;;;;5073104;28;20023;-83
2021/03/17 01:42:41;;;;;;;20.50;12.20;;;;;;;;;;5073833;28;20494;-82
2021/03/17 01:45:11;;;;;;;19.00;11.27;;;;;;;;;;5073623;28;20614;-82
2021/03/17 01:47:37;;;;;;;19.90;11.67;;;;;;;;;;5073537;28;20644;-82
2021/03/17 01:50:03;;;;;;;18.47;11.10;;;;;;;;;;5073809;28;20107;-82
2021/03/17 01:52:29;;;;;;;18.47;10.63;;;;;;;;;;5074804;28;20479;-82
2021/03/17 01:54:54;;;;;;;19.20;11.17;;;;;;;;;;5075533;28;20058;-83
2021/03/17 01:57:19;;;;;;;25.80;10.70;;;;;;;;;;5073626;28;20100;-82
2021/03/17 01:59:44;;;;;;;18.73;11.00;;;;;;;;;;5073271;28;20035;-82
2021/03/17 02:02:11;;;;;;;19.93;11.60;;;;;;;;;;5074463;28;20051;-82
2021/03/17 02:04:36;;;;;;;19.97;11.57;;;;;;;;;;5074779;28;20482;-82
2021/03/17 02:07:01;;;;;;;19.63;10.90;;;;;;;;;;5073468;28;20108;-82
2021/03/17 02:09:26;;;;;;;19.60;11.50;;;;;;;;;;5074540;28;20376;-82
2021/03/17 02:12:05;;;;;;;21.60;12.07;;;;;;;;;;5072990;28;20074;-82
2021/03/17 02:14:30;;;;;;;19.60;11.20;;;;;;;;;;5074470;28;20424;-82
2021/03/17 02:17:04;;;;;;;20.93;12.17;;;;;;;;;;5073070;28;20031;-83
2021/03/17 02:19:48;;;;;;;22.77;11.87;;;;;;;;;;5073015;28;20017;-82
2021/03/17 02:22:16;;;;;;;21.87;12.23;;;;;;;;;;5072930;28;20418;-82
2021/03/17 02:24:54;;;;;;;21.53;11.97;;;;;;;;;;5073040;28;20063;-82
2021/03/17 02:27:46;;;;;;;23.67;13.17;;;;;;;;;;5073015;28;20023;-82
2021/03/17 02:30:11;;;;;;;22.13;12.37;;;;;;;;;;5056861;28;20530;-82
2021/03/17 02:32:36;;;;;;;24.30;14.07;;;;;;;;;;5072897;28;20052;-82
2021/03/17 02:35:03;;;;;;;23.33;12.50;;;;;;;;;;5072621;28;20437;-82
2021/03/17 02:37:29;;;;;;;22.50;12.47;;;;;;;;;;5072738;28;20043;-83
2021/03/17 02:40:09;;;;;;;21.90;12.50;;;;;;;;;;5072363;28;20024;-82
2021/03/17 02:42:40;;;;;;;23.80;13.67;;;;;;;;;;5072973;28;20058;-82
2021/03/17 02:45:16;;;;;;;24.77;13.67;;;;;;;;;;5073882;28;20069;-83
2021/03/17 02:47:52;;;;;;;24.10;12.63;;;;;;;;;;5072958;28;20023;-82
2021/03/17 02:50:18;;;;;;;23.50;14.00;;;;;;;;;;5072498;28;20028;-82
2021/03/17 02:52:45;;;;;;;24.30;12.63;;;;;;;;;;5072778;28;20446;-82
2021/03/17 02:55:11;;;;;;;21.87;12.40;;;;;;;;;;5072546;28;20016;-82
2021/03/17 02:57:38;;;;;;;23.67;13.07;;;;;;;;;;5072427;28;20024;-82
2021/03/17 03:00:05;;;;;;;25.20;13.50;;;;;;;;;;5073753;28;20432;-82
2021/03/17 03:02:31;;;;;;;22.20;12.97;;;;;;;;;;5073669;28;20491;-82
2021/03/17 03:04:57;;;;;;;20.93;12.40;;;;;;;;;;5072353;28;20052;-82
2021/03/17 03:07:22;;;;;;;23.20;13.13;;;;;;;;;;5072014;28;20507;-82
2021/03/17 03:09:49;;;;;;;23.37;12.33;;;;;;;;;;5073001;28;20028;-82
2021/03/17 03:12:14;;;;;;;18.53;11.90;;;;;;;;;;5070860;28;20055;-82
2021/03/17 03:14:40;;;;;;;22.87;13.37;;;;;;;;;;5070888;28;20463;-82
2021/03/17 03:17:06;;;;;;;22.97;12.87;;;;;;;;;;5072285;28;20036;-82
2021/03/17 03:19:44;;;;;;;19.93;12.10;;;;;;;;;;5070372;28;20032;-82
2021/03/17 03:22:09;;;;;;;21.17;12.13;;;;;;;;;;5070973;28;20111;-82
2021/03/17 03:24:35;;;;;;;20.63;11.97;;;;;;;;;;5072264;28;20350;-82
2021/03/17 03:27:01;;;;;;;22.13;12.73;;;;;;;;;;5070554;28;20017;-82
2021/03/17 03:29:26;;;;;;;21.17;12.20;;;;;;;;;;5072140;28;20074;-82
2021/03/17 03:31:52;;;;;;;20.70;13.13;;;;;;;;;;5070415;28;20048;-82
2021/03/17 03:34:17;;;;;;;22.60;12.60;;;;;;;;;;5070716;28;20033;-82
2021/03/17 03:36:43;;;;;;;28.00;13.60;;;;;;;;;;5071638;28;20069;-82
2021/03/17 03:39:08;;;;;;;22.63;13.17;;;;;;;;;;5070445;28;20035;-82
2021/03/17 03:41:34;;;;;;;21.27;12.20;;;;;;;;;;5069939;28;20025;-82
2021/03/17 03:43:59;;;;;;;21.97;13.30;;;;;;;;;;5071155;28;20104;-83
2021/03/17 03:46:24;;;;;;;23.67;12.53;;;;;;;;;;5071582;28;20028;-82
2021/03/17 03:48:49;;;;;;;21.20;12.27;;;;;;;;;;5071108;28;20023;-82
2021/03/17 03:51:17;;;;;;;22.17;12.83;;;;;;;;;;5071484;28;20467;-82
2021/03/17 03:54:01;;;;;;;24.57;13.73;;;;;;;;;;5068379;28;20078;-82
2021/03/17 03:56:30;;;;;;;22.87;13.57;;;;;;;;;;5072373;28;20020;-82
2021/03/17 03:58:58;;;;;;;22.13;13.30;;;;;;;;;;5070938;28;20066;-82
2021/03/17 04:01:28;;;;;;;24.17;13.47;;;;;;;;;;5070977;28;20029;-82
2021/03/17 04:03:55;;;;;;;26.30;13.93;;;;;;;;;;5071349;28;20051;-82
2021/03/17 04:06:20;;;;;;;24.33;14.27;;;;;;;;;;5070961;28;20024;-82
2021/03/17 04:08:47;;;;;;;24.67;14.97;;;;;;;;;;5071179;28;20028;-82
2021/03/17 04:11:13;;;;;;;26.63;16.23;;;;;;;;;;5072067;28;20024;-82
2021/03/17 04:13:39;;;;;;;28.00;14.83;;;;;;;;;;5070848;28;20066;-82
2021/03/17 04:16:05;;;;;;;28.20;14.93;;;;;;;;;;5072213;28;20711;-83
2021/03/17 04:18:32;;;;;;;32.67;16.27;;;;;;;;;;5070947;28;20028;-82
2021/03/17 04:21:01;;;;;;;26.23;15.83;;;;;;;;;;5070998;28;20094;-82
2021/03/17 04:23:27;;;;;;;29.40;17.10;;;;;;;;;;5072420;28;20028;-82
2021/03/17 04:25:53;;;;;;;28.27;16.87;;;;;;;;;;5071024;28;20431;-82
2021/03/17 04:28:20;;;;;;;29.47;17.30;;;;;;;;;;5072053;28;20024;-82
2021/03/17 04:30:46;;;;;;;30.53;17.93;;;;;;;;;;5070518;28;20056;-82
2021/03/17 04:33:13;;;;;;;32.37;19.17;;;;;;;;;;5070846;28;20457;-83
2021/03/17 04:35:38;;;;;;;33.67;18.80;;;;;;;;;;5070590;28;20460;-82
2021/03/17 04:38:04;;;;;;;32.83;19.00;;;;;;;;;;5070829;28;20028;-82
2021/03/17 04:40:29;;;;;;;30.90;17.90;;;;;;;;;;5072035;28;20033;-82
2021/03/17 04:42:56;;;;;;;31.37;18.93;;;;;;;;;;5072206;28;20103;-82
2021/03/17 04:45:21;;;;;;;32.30;17.97;;;;;;;;;;5070257;28;20016;-82
2021/03/17 04:47:50;;;;;;;31.80;17.93;;;;;;;;;;5070872;28;20021;-83
2021/03/17 04:50:16;;;;;;;32.53;19.33;;;;;;;;;;5055609;28;20033;-82
2021/03/17 04:52:43;;;;;;;34.47;20.53;;;;;;;;;;5061483;28;20067;-82
2021/03/17 04:55:08;;;;;;;32.63;19.70;;;;;;;;;;5074475;28;20025;-82
2021/03/17 04:57:34;;;;;;;34.50;19.33;;;;;;;;;;5076094;28;20069;-82
2021/03/17 05:00:00;;;;;;;34.27;20.07;;;;;;;;;;5074559;28;20158;-82
2021/03/17 05:02:27;;;;;;;35.33;21.20;;;;;;;;;;5074371;28;20157;-82
2021/03/17 05:04:53;;;;;;;37.27;21.87;;;;;;;;;;5074497;28;20119;-83
2021/03/17 05:07:19;;;;;;;37.03;22.23;;;;;;;;;;5074520;28;20185;-82
2021/03/17 05:09:45;;;;;;;35.20;20.87;;;;;;;;;;5074296;28;20027;-82
2021/03/17 05:12:12;;;;;;;41.73;22.53;;;;;;;;;;5075481;28;20036;-83
2021/03/17 05:14:37;;;;;;;35.10;20.87;;;;;;;;;;5075854;28;20025;-82
2021/03/17 05:17:04;;;;;;;35.27;21.83;;;;;;;;;;5075782;28;20108;-82
2021/03/17 05:19:29;;;;;;;38.37;22.07;;;;;;;;;;5074045;28;20023;-82
2021/03/17 05:21:56;;;;;;;40.10;23.17;;;;;;;;;;5075814;28;20020;-82
2021/03/17 05:24:21;;;;;;;44.00;24.90;;;;;;;;;;5073880;28;20047;-82
2021/03/17 05:26:47;;;;;;;36.70;23.17;;;;;;;;;;5073922;28;20040;-82
2021/03/17 05:29:15;;;;;;;39.83;22.90;;;;;;;;;;5073849;28;20036;-82
2021/03/17 05:31:41;;;;;;;42.20;22.80;;;;;;;;;;5073732;28;20040;-82
2021/03/17 05:34:06;;;;;;;42.70;24.57;;;;;;;;;;5074071;28;20074;-82
2021/03/17 05:36:31;;;;;;;39.57;22.83;;;;;;;;;;5073892;28;20111;-82
2021/03/17 05:38:56;;;;;;;38.30;22.00;;;;;;;;;;5073559;28;20024;-82
2021/03/17 05:41:22;;;;;;;38.33;21.70;;;;;;;;;;5073553;28;20020;-82
2021/03/17 05:43:47;;;;;;;38.77;22.00;;;;;;;;;;5074973;28;20025;-82
2021/03/17 05:46:13;;;;;;;42.57;23.13;;;;;;;;;;5074817;28;20103;-82
2021/03/17 05:48:39;;;;;;;42.43;24.07;;;;;;;;;;5073704;28;20052;-82
2021/03/17 05:51:04;;;;;;;45.67;23.83;;;;;;;;;;5073597;28;20125;-82
2021/03/17 05:53:30;;;;;;;45.90;25.87;;;;;;;;;;5073300;28;20027;-82
2021/03/17 05:55:59;;;;;;;45.00;24.90;;;;;;;;;;5074917;28;20016;-82
2021/03/17 05:58:24;;;;;;;49.00;25.33;;;;;;;;;;5074667;28;20032;-83
2021/03/17 06:00:50;;;;;;;46.93;25.27;;;;;;;;;;5074150;28;20484;-83
2021/03/17 06:03:15;;;;;;;44.40;22.60;;;;;;;;;;5073517;28;20023;-82
2021/03/17 06:05:41;;;;;;;40.83;23.53;;;;;;;;;;5073345;28;20024;-82
2021/03/17 06:08:07;;;;;;;44.43;23.87;;;;;;;;;;5074547;28;20028;-82
2021/03/17 06:10:35;;;;;;;45.10;22.87;;;;;;;;;;5073239;28;20663;-82
2021/03/17 06:13:02;;;;;;;45.17;24.30;;;;;;;;;;5074716;28;20028;-82
2021/03/17 06:15:29;;;;;;;42.27;23.57;;;;;;;;;;5073434;28;20432;-83
2021/03/17 06:17:59;;;;;;;41.67;23.47;;;;;;;;;;5072433;28;20067;-82
2021/03/17 06:20:24;;;;;;;43.83;22.77;;;;;;;;;;5073082;28;20024;-82
2021/03/17 06:22:49;;;;;;;42.53;21.50;;;;;;;;;;5074405;28;20029;-82
2021/03/17 06:25:15;;;;;;;41.83;21.80;;;;;;;;;;5074643;28;20036;-82
2021/03/17 06:27:41;;;;;;;45.83;24.40;;;;;;;;;;5072816;28;20051;-82
2021/03/17 06:30:07;;;;;;;40.33;22.27;;;;;;;;;;5072836;28;20051;-82
2021/03/17 06:32:34;;;;;;;39.07;20.83;;;;;;;;;;5072979;28;20107;-82
2021/03/17 06:35:00;;;;;;;37.33;21.17;;;;;;;;;;5072658;28;20024;-82
2021/03/17 06:37:35;;;;;;;42.43;21.13;;;;;;;;;;5072673;28;20036;-82
2021/03/17 06:40:01;;;;;;;36.93;20.60;;;;;;;;;;5072503;28;20024;-83
2021/03/17 06:42:46;;;;;;;39.43;20.67;;;;;;;;;;5072672;28;20502;-83
2021/03/17 06:45:12;;;;;;;38.03;20.37;;;;;;;;;;5058060;28;20066;-82
2021/03/17 06:47:37;;;;;;;47.47;20.07;;;;;;;;;;5073786;28;20482;-82
2021/03/17 06:50:07;;;;;;;36.87;19.63;;;;;;;;;;5072497;28;20479;-82
2021/03/17 06:52:37;;;;;;;34.93;19.83;;;;;;;;;;5072492;28;20435;-83
2021/03/17 06:55:09;;;;;;;37.30;18.17;;;;;;;;;;5072313;28;20032;-83
2021/03/17 06:57:37;;;;;;;37.73;19.53;;;;;;;;;;5073824;28;20020;-82
2021/03/17 07:00:19;;;;;;;34.47;18.53;;;;;;;;;;5072032;28;20740;-82
2021/03/17 07:02:52;;;;;;;33.03;17.20;;;;;;;;;;5072397;28;20016;-82
2021/03/17 07:05:17;;;;;;;27.45;15.10;;;;;;;;;;5071195;28;20056;-82
2021/03/17 07:07:49;;;;;;;26.73;15.80;;;;;;;;;;5070591;28;20051;-82
2021/03/17 07:10:25;;;;;;;32.33;16.67;;;;;;;;;;5071214;28;20107;-82
2021/03/17 07:12:52;;;;;;;28.87;16.40;;;;;;;;;;5070742;28;20090;-82
2021/03/17 07:15:19;;;;;;;26.30;15.13;;;;;;;;;;5070631;28;20052;-82
2021/03/17 07:17:44;;;;;;;27.10;16.40;;;;;;;;;;5070491;28;20031;-82
2021/03/17 07:20:10;;;;;;;27.67;16.80;;;;;;;;;;5070332;28;20017;-82
2021/03/17 07:22:36;;;;;;;29.77;15.70;;;;;;;;;;5071675;28;20724;-82
2021/03/17 07:25:03;;;;;;;28.43;15.57;;;;;;;;;;5071668;28;20078;-82
2021/03/17 07:27:29;;;;;;;28.10;15.67;;;;;;;;;;5071347;28;20048;-82
2021/03/17 07:29:58;;;;;;;25.97;14.97;;;;;;;;;;5071246;28;20272;-82
2021/03/17 07:32:27;;;;;;;29.70;15.63;;;;;;;;;;5071850;28;20550;-82
2021/03/17 07:34:53;;;;;;;28.87;16.50;;;;;;;;;;5072872;28;20020;-82
2021/03/17 07:37:23;;;;;;;26.67;14.83;;;;;;;;;;5061002;28;20103;-82
2021/03/17 07:39:49;;;;;;;27.10;15.87;;;;;;;;;;5068970;28;20046;-82
2021/03/17 07:42:14;;;;;;;25.03;13.23;;;;;;;;;;5071727;28;20020;-82
2021/03/17 07:44:42;;;;;;;21.47;13.83;;;;;;;;;;5071412;28;20027;-82
2021/03/17 07:47:09;;;;;;;21.37;10.87;;;;;;;;;;5071723;28;20107;-82
2021/03/17 07:49:35;;;;;;;21.40;12.40;;;;;;;;;;5071544;28;20025;-82
2021/03/17 07:52:00;;;;;;;21.97;13.13;;;;;;;;;;5072260;28;20035;-82
2021/03/17 07:54:27;;;;;;;23.80;12.67;;;;;;;;;;5071491;28;20024;-82
2021/03/17 07:56:53;;;;;;;23.97;13.40;;;;;;;;;;5071356;28;20016;-82
2021/03/17 07:59:18;;;;;;;20.73;11.87;;;;;;;;;;5071240;28;20025;-82
2021/03/17 08:01:44;;;;;;;21.40;11.80;;;;;;;;;;5072247;28;20012;-82
2021/03/17 08:04:10;;;;;;;16.20;10.30;;;;;;;;;;5071032;28;20012;-82
2021/03/17 08:06:35;;;;;;;19.57;11.03;;;;;;;;;;5071339;28;20569;-82
2021/03/17 08:09:01;;;;;;;16.77;11.00;;;;;;;;;;5070751;28;20135;-82
2021/03/17 08:11:27;;;;;;;13.90;7.83;;;;;;;;;;5071094;28;20031;-82
2021/03/17 08:13:53;;;;;;;12.33;8.23;;;;;;;;;;5071093;28;20024;-82
2021/03/17 08:16:30;;;;;;;10.93;7.47;;;;;;;;;;5052534;28;20036;-82
2021/03/17 08:18:55;;;;;;;10.77;7.67;;;;;;;;;;5064910;28;20636;-82
2021/03/17 08:21:39;;;;;;;10.97;7.30;;;;;;;;;;5070290;28;20017;-82
2021/03/17 08:24:05;;;;;;;8.67;6.00;;;;;;;;;;5071062;28;20573;-82
2021/03/17 08:26:30;;;;;;;8.37;5.83;;;;;;;;;;5070876;28;20028;-82
2021/03/17 08:28:56;;;;;;;6.78;4.62;;;;;;;;;;5070438;28;20104;-82
2021/03/17 08:31:36;;;;;;;11.80;5.37;;;;;;;;;;5069180;28;20094;-82
2021/03/17 08:34:20;;;;;;;6.73;4.87;;;;;;;;;;5069457;28;20024;-83
2021/03/17 08:36:46;;;;;;;7.00;4.50;;;;;;;;;;5068400;28;20013;-83
2021/03/17 08:39:14;;;;;;;6.93;4.50;;;;;;;;;;5068073;28;20036;-83
2021/03/17 08:41:41;;;;;;;7.93;5.23;;;;;;;;;;5069852;28;20017;-82
2021/03/17 08:44:15;;;;;;;7.27;4.90;;;;;;;;;;5071145;28;20056;-83
2021/03/17 08:46:40;;;;;;;15.20;7.87;;;;;;;;;;5071198;28;20040;-82
2021/03/17 08:49:07;;;;;;;4.97;4.00;;;;;;;;;;5071670;28;20439;-82
2021/03/17 08:51:45;;;;;;;5.97;3.70;;;;;;;;;;5068088;28;20021;-82
2021/03/17 08:54:29;;;;;;;5.47;3.73;;;;;;;;;;5065259;28;20024;-83
2021/03/17 08:56:54;;;;;;;3.27;2.30;;;;;;;;;;5070636;28;20103;-83
2021/03/17 08:59:20;;;;;;;7.33;2.47;;;;;;;;;;5070640;28;20107;-83
2021/03/17 09:01:45;;;;;;;8.03;3.87;;;;;;;;;;5071844;28;20560;-83
2021/03/17 09:04:10;;;;;;;14.27;9.10;;;;;;;;;;5069472;28;20086;-83
2021/03/17 09:06:35;;;;;;;8.77;5.17;;;;;;;;;;5071255;28;20047;-83
2021/03/17 09:09:02;;;;;;;9.63;5.00;;;;;;;;;;5069754;28;20028;-83
2021/03/17 09:11:31;;;;;;;3.70;2.30;;;;;;;;;;5070543;28;20150;-83
2021/03/17 09:13:59;;;;;;;3.37;1.80;;;;;;;;;;5072031;28;20028;-83
2021/03/17 09:16:25;;;;;;;3.33;2.07;;;;;;;;;;5070058;28;20111;-83
2021/03/17 09:19:16;;;;;;;4.50;2.07;;;;;;;;;;5070301;28;20515;-83
2021/03/17 09:21:45;;;;;;;8.40;2.10;;;;;;;;;;5089924;28;20056;-83
2021/03/17 09:24:27;;;;;;;4.37;1.60;;;;;;;;;;5069620;28;20098;-83
2021/03/17 09:27:19;;;;;;;2.00;1.48;;;;;;;;;;5065983;28;20012;-83
2021/03/17 09:29:48;;;;;;;3.20;1.70;;;;;;;;;;5066853;28;20384;-83
2021/03/17 09:32:13;;;;;;;2.13;1.30;;;;;;;;;;5071086;28;20530;-83
2021/03/17 09:34:39;;;;;;;4.77;1.47;;;;;;;;;;5070591;28;20012;-83
2021/03/17 09:37:12;;;;;;;3.40;1.50;;;;;;;;;;5070366;28;20055;-82
2021/03/17 09:39:45;;;;;;;4.00;1.67;;;;;;;;;;5072754;28;20064;-82
2021/03/17 09:42:19;;;;;;;3.23;1.80;;;;;;;;;;5075104;28;20491;-83
2021/03/17 09:44:44;;;;;;;2.50;1.27;;;;;;;;;;5073766;28;20048;-83
2021/03/17 09:47:10;;;;;;;5.17;2.10;;;;;;;;;;5073715;28;20063;-83
2021/03/17 09:49:35;;;;;;;3.80;1.90;;;;;;;;;;5075480;28;20566;-83
2021/03/17 09:52:04;;;;;;;5.00;2.33;;;;;;;;;;5073816;28;20020;-83
2021/03/17 09:54:32;;;;;;;4.23;2.33;;;;;;;;;;5071720;28;20024;-83
2021/03/17 09:57:04;;;;;;;4.80;2.50;;;;;;;;;;5074892;28;20020;-83
2021/03/17 09:59:30;;;;;;;4.35;2.17;;;;;;;;;;5070566;28;20024;-83
2021/03/17 10:02:05;;;;;;;4.10;2.23;;;;;;;;;;5074744;28;20021;-83
2021/03/17 10:04:34;;;;;;;5.60;3.47;;;;;;;;;;5060678;28;20070;-83
2021/03/17 10:07:01;;;;;;;7.90;5.40;;;;;;;;;;5075048;28;20036;-83
2021/03/17 10:09:27;;;;;;;20.77;11.50;;;;;;;;;;5059491;28;20028;-83
2021/03/17 10:11:58;;;;;;;4.70;2.50;;;;;;;;;;5107230;28;20029;-83
2021/03/17 10:14:24;;;;;;;3.77;2.40;;;;;;;;;;5073457;28;20028;-83
2021/03/17 10:16:49;;;;;;;4.43;2.40;;;;;;;;;;5074867;28;20024;-83
2021/03/17 10:19:15;;;;;;;3.67;2.23;;;;;;;;;;5073342;28;20024;-83
2021/03/17 10:21:41;;;;;;;3.50;2.00;;;;;;;;;;5065082;28;20079;-83
2021/03/17 10:24:07;;;;;;;3.27;1.83;;;;;;;;;;5068744;28;20020;-83
2021/03/17 10:26:35;;;;;;;3.67;2.10;;;;;;;;;;5067842;28;20440;-83
2021/03/17 10:29:00;;;;;;;4.37;2.13;;;;;;;;;;5070028;28;20095;-83
2021/03/17 10:31:29;;;;;;;2.87;2.10;;;;;;;;;;5071728;28;20066;-83
2021/03/17 10:33:54;;;;;;;5.90;2.13;;;;;;;;;;5074517;28;20352;-83
2021/03/17 10:36:19;;;;;;;2.83;2.23;;;;;;;;;;5074337;28;20017;-83
2021/03/17 10:38:51;;;;;;;9.30;2.07;;;;;;;;;;5074482;28;20025;-83
2021/03/17 10:41:35;;;;;;;2.53;1.85;;;;;;;;;;5073234;28;20028;-83
2021/03/17 10:44:10;;;;;;;4.10;2.23;;;;;;;;;;5072994;28;20020;-82
2021/03/17 10:46:54;;;;;;;4.50;2.30;;;;;;;;;;5072589;28;20017;-83
2021/03/17 10:49:19;;;;;;;3.00;2.10;;;;;;;;;;5072441;28;20024;-83
2021/03/17 10:51:49;;;;;;;3.73;2.10;;;;;;;;;;5073499;28;20020;-83
2021/03/17 10:54:15;;;;;;;3.67;2.07;;;;;;;;;;5063691;28;20537;-83
2021/03/17 10:56:49;;;;;;;3.13;2.30;;;;;;;;;;5102711;28;20028;-83
2021/03/17 10:59:22;;;;;;;4.27;2.10;;;;;;;;;;5072763;28;20444;-83
2021/03/17 11:01:47;;;;;;;4.83;2.23;;;;;;;;;;5072523;28;20515;-83
2021/03/17 11:04:12;;;;;;;3.47;2.00;;;;;;;;;;5071864;28;20082;-83
2021/03/17 11:06:37;;;;;;;3.20;1.80;;;;;;;;;;5072319;28;20020;-83
2021/03/17 11:09:02;;;;;;;7.07;2.00;;;;;;;;;;5072467;28;20387;-83
2021/03/17 11:11:28;;;;;;;5.30;1.90;;;;;;;;;;5073475;28;20016;-83
2021/03/17 11:13:53;;;;;;;2.60;1.60;;;;;;;;;;5072060;28;20081;-83
2021/03/17 11:16:31;;;;;;;1.90;1.57;;;;;;;;;;5071966;28;20430;-83
2021/03/17 11:18:57;;;;;;;2.53;1.70;;;;;;;;;;5073645;28;20028;-83
2021/03/17 11:21:22;;;;;;;5.03;1.30;;;;;;;;;;5072085;28;20030;-83
2021/03/17 11:23:48;;;;;;;3.67;1.43;;;;;;;;;;5073493;28;20452;-83
2021/03/17 11:26:24;;;;;;;4.33;1.40;;;;;;;;;;5068498;28;20040;-83
2021/03/17 11:28:49;;;;;;;5.17;1.63;;;;;;;;;;5064303;28;20418;-83
2021/03/17 11:31:22;;;;;;;6.30;1.50;;;;;;;;;;5073067;28;20009;-83
2021/03/17 11:33:47;;;;;;;2.60;1.17;;;;;;;;;;5072083;28;20017;-83
2021/03/17 11:36:12;;;;;;;5.07;1.00;;;;;;;;;;5070147;28;20032;-83
2021/03/17 11:38:37;;;;;;;2.17;1.17;;;;;;;;;;5093416;28;20043;-83
2021/03/17 11:41:02;;;;;;;3.73;1.20;;;;;;;;;;5071763;28;20103;-83
2021/03/17 11:43:29;;;;;;;3.20;1.23;;;;;;;;;;5071696;28;20012;-83
2021/03/17 11:45:55;;;;;;;4.47;1.23;;;;;;;;;;5071660;28;20032;-83
2021/03/17 11:48:21;;;;;;;5.37;1.40;;;;;;;;;;5071738;28;20009;-83
2021/03/17 11:50:48;;;;;;;6.17;1.23;;;;;;;;;;5071716;28;20031;-83
2021/03/17 11:53:14;;;;;;;2.97;1.50;;;;;;;;;;5071288;28;20468;-83
2021/03/17 11:55:40;;;;;;;6.20;1.40;;;;;;;;;;5071678;28;20558;-83
2021/03/17 11:58:05;;;;;;;6.20;2.50;;;;;;;;;;5071494;28;20035;-83
2021/03/17 12:00:30;;;;;;;2.60;1.43;;;;;;;;;;5072449;28;20451;-82
2021/03/17 12:02:55;;;;;;;4.17;1.50;;;;;;;;;;5070682;28;20051;-83
2021/03/17 12:05:21;;;;;;;7.00;1.60;;;;;;;;;;5071384;28;20024;-82
2021/03/17 12:07:46;;;;;;;3.70;1.50;;;;;;;;;;5072831;28;20013;-83
2021/03/17 12:10:12;;;;;;;6.73;2.00;;;;;;;;;;5071542;28;20104;-83
2021/03/17 12:12:37;;;;;;;3.77;2.03;;;;;;;;;;5067443;28;20055;-83
2021/03/17 12:15:04;;;;;;;3.13;2.10;;;;;;;;;;5060850;28;20044;-83
2021/03/17 12:17:29;;;;;;;4.97;1.60;;;;;;;;;;5071091;28;20025;-83
2021/03/17 12:19:54;;;;;;;13.57;2.73;;;;;;;;;;5071445;28;20036;-83
2021/03/17 12:22:21;;;;;;;6.63;1.90;;;;;;;;;;5072321;28;20021;-83
2021/03/17 12:24:46;;;;;;;3.83;1.80;;;;;;;;;;5072119;28;20093;-83
2021/03/17 12:27:11;;;;;;;3.03;1.70;;;;;;;;;;5060987;28;20012;-83
2021/03/17 12:29:36;;;;;;;2.73;1.50;;;;;;;;;;5072331;28;20447;-83
2021/03/17 12:32:02;;;;;;;2.00;1.63;;;;;;;;;;5072256;28;20023;-83
2021/03/17 12:34:28;;;;;;;3.77;1.60;;;;;;;;;;5071596;28;20020;-83
2021/03/17 12:36:54;;;;;;;2.63;1.80;;;;;;;;;;5070499;28;20098;-83
2021/03/17 12:39:19;;;;;;;4.47;1.83;;;;;;;;;;5071092;28;20082;-83
2021/03/17 12:41:44;;;;;;;3.03;1.30;;;;;;;;;;5072240;28;20012;-82
2021/03/17 12:44:09;;;;;;;6.80;1.50;;;;;;;;;;5072382;28;20056;-83
2021/03/17 12:46:35;;;;;;;5.87;1.70;;;;;;;;;;5070638;28;20016;-83
2021/03/17 12:49:00;;;;;;;3.10;1.43;;;;;;;;;;5070898;28;20074;-83
2021/03/17 12:51:25;;;;;;;4.33;1.37;;;;;;;;;;5070387;28;20029;-83
2021/03/17 12:53:51;;;;;;;3.93;1.40;;;;;;;;;;5070231;28;20027;-83
2021/03/17 12:56:16;;;;;;;7.37;1.50;;;;;;;;;;5071727;28;20063;-83
2021/03/17 12:58:41;;;;;;;2.53;1.43;;;;;;;;;;5070128;28;20033;-83
2021/03/17 13:01:06;;;;;;;2.17;1.70;;;;;;;;;;5070637;28;20017;-83
2021/03/17 13:03:31;;;;;;;4.37;1.10;;;;;;;;;;5070253;28;20012;-83
2021/03/17 13:05:57;;;;;;;2.23;1.10;;;;;;;;;;5069987;28;20048;-83
2021/03/17 13:08:22;;;;;;;4.93;1.40;;;;;;;;;;5069836;28;20023;-83
2021/03/17 13:10:47;;;;;;;3.33;1.33;;;;;;;;;;5069821;28;20025;-83
2021/03/17 13:13:13;;;;;;;6.33;1.93;;;;;;;;;;5071083;28;20021;-83
2021/03/17 13:15:38;;;;;;;3.27;1.20;;;;;;;;;;5073461;28;20038;-83
2021/03/17 13:18:03;;;;;;;1.50;1.10;;;;;;;;;;5074737;28;20093;-83
2021/03/17 13:20:31;;;;;;;2.50;1.30;;;;;;;;;;5074447;28;20472;-82
2021/03/17 13:22:56;;;;;;;2.33;1.03;;;;;;;;;;5074554;28;20048;-82
2021/03/17 13:25:21;;;;;;;1.90;0.93;;;;;;;;;;5074982;28;20044;-82
2021/03/17 13:27:46;;;;;;;6.50;1.30;;;;;;;;;;5074259;28;20272;-82
2021/03/17 13:30:13;;;;;;;3.10;1.10;;;;;;;;;;5075157;28;20103;-82
2021/03/17 13:32:39;;;;;;;2.72;1.10;;;;;;;;;;5074411;28;20017;-82
2021/03/17 13:35:04;;;;;;;2.77;1.13;;;;;;;;;;5073949;28;20515;-82
2021/03/17 13:37:30;;;;;;;6.60;1.20;;;;;;;;;;5075638;28;20073;-82
2021/03/17 13:39:55;;;;;;;2.90;1.60;;;;;;;;;;5075745;28;20024;-83
2021/03/17 13:42:20;;;;;;;6.47;1.53;;;;;;;;;;5074327;28;20024;-83
2021/03/17 13:44:45;;;;;;;3.07;1.53;;;;;;;;;;5073156;28;20016;-83
2021/03/17 13:47:11;;;;;;;8.90;2.00;;;;;;;;;;5073962;28;20085;-83
2021/03/17 13:49:36;;;;;;;8.10;2.00;;;;;;;;;;5073693;28;20106;-82
2021/03/17 13:52:01;;;;;;;2.40;1.27;;;;;;;;;;5061598;28;20424;-83
2021/03/17 13:54:26;;;;;;;3.97;1.80;;;;;;;;;;5074020;28;20031;-82
2021/03/17 13:56:51;;;;;;;4.23;1.50;;;;;;;;;;5073307;28;20070;-83
2021/03/17 13:59:16;;;;;;;2.30;1.30;;;;;;;;;;5074628;28;20314;-84
2021/03/17 14:01:42;;;;;;;2.63;1.40;;;;;;;;;;5073725;28;20108;-82
2021/03/17 14:04:07;;;;;;;2.57;1.30;;;;;;;;;;5074784;28;20020;-82
2021/03/17 14:06:32;;;;;;;3.37;1.73;;;;;;;;;;5073132;28;20052;-82
2021/03/17 14:08:57;;;;;;;4.73;1.63;;;;;;;;;;5073218;28;20115;-82
2021/03/17 14:11:22;;;;;;;3.90;1.53;;;;;;;;;;5073734;28;20066;-82
2021/03/17 14:13:48;;;;;;;2.83;1.40;;;;;;;;;;5073376;28;20032;-82
2021/03/17 14:16:13;;;;;;;6.50;1.53;;;;;;;;;;5073522;28;20404;-82
2021/03/17 14:18:38;;;;;;;2.70;2.07;;;;;;;;;;5073328;28;20031;-82
2021/03/17 14:21:04;;;;;;;3.20;1.60;;;;;;;;;;5073104;28;20032;-82
2021/03/17 14:23:29;;;;;;;2.50;1.80;;;;;;;;;;5074810;28;20028;-83
2021/03/17 14:25:54;;;;;;;4.20;2.13;;;;;;;;;;5072561;28;20092;-83
2021/03/17 14:28:19;;;;;;;6.28;2.22;;;;;;;;;;5072958;28;20520;-83